Portada
METAR-TAF:

METAR-TAF

Aeroports :

Samsun, Turquia

latitud: 41-15-15N, longitud: 036-34-03E, altitud: 5 m

Observació

L'informe es va fer fa 30 minuts, a les 08:50 UTC
Vent 3 kt amb direcció variable
Temperatura 29°C
Humitat 55%
Pressió 1007 hPa
Visibilitat 10 km o més
Escasses núvols a una alçada de 3600 ft

METAR: LTFH 080850Z VRB03KT 9999 FEW036 29/19 Q1007 NOSIG

Hora: 12:20 (09:20 UTC)

Pronòstic

L'informe es va fer fa 1 hora i 40 minuts, a les 07:40 UTC
Pronòstic vàlid del 08 a les 09 UTC al 08 a les 18 UTC
Vent 8 kt del Est
Visibilitat 10 km o més
Escasses núvols a una alçada de 3600 ft

TAF: LTFH 080740Z 0809/0818 10008KT 9999 FEW036

Observacions i pronòstics meteorològics de més de 4000 aeroports (METAR i TAF).

Les estacions disponibles són els punts grocs i vermells al mapa.

Posi el ratolí al punt desitjat per veure el nom de l'estació.

Feu clic per veure les observacions i els pronòstics meteorològics.

Per canviar el mapa: feu clic els botons verds amb una creu de color negre per apropar; al botó verd amb un guió per allunyar la imatge; o en les fletxes verdes per a mapes adjacents.


METAR-TAF: